Time;durP1;ratioP1;P1;durP2;ratioP2;P2;SDS_P1;SDS_P2;PMS_P1;PMS_P2;Temp;Humidity;BMP_temperature;BMP_pressure;BME280_temperature;BME280_humidity;BME280_pressure;Samples;Min_cycle;Max_cycle;Signal;HPM_P1;HPM_P2
2021/12/20 00:01:44;;;;;;;15.77;3.45;;;6.10;99.90;;;;;;5077533;28;20101;-59
2021/12/20 00:04:09;;;;;;;21.02;3.92;;;6.10;99.90;;;;;;5077710;28;20067;-58
2021/12/20 00:06:35;;;;;;;17.98;3.70;;;6.10;99.90;;;;;;5077104;28;20048;-59
2021/12/20 00:09:01;;;;;;;25.05;3.65;;;6.10;99.90;;;;;;5077856;28;20052;-59
2021/12/20 00:11:27;;;;;;;22.13;4.32;;;6.00;99.90;;;;;;5077566;28;20042;-59
2021/12/20 00:13:53;;;;;;;17.50;3.40;;;6.00;99.90;;;;;;5077351;28;20079;-59
2021/12/20 00:16:19;;;;;;;18.52;4.50;;;6.00;99.90;;;;;;5080242;28;20040;-59
2021/12/20 00:18:45;;;;;;;20.17;3.88;;;6.00;99.90;;;;;;5079695;28;20052;-60
2021/12/20 00:21:11;;;;;;;18.02;3.25;;;6.00;99.90;;;;;;5081446;28;20133;-59
2021/12/20 00:23:38;;;;;;;17.45;3.25;;;6.00;99.90;;;;;;5080772;28;20114;-59
2021/12/20 00:26:04;;;;;;;23.52;4.53;;;6.00;99.90;;;;;;5081105;28;20108;-59
2021/12/20 00:28:30;;;;;;;19.20;3.30;;;6.00;99.90;;;;;;5079550;28;20170;-59
2021/12/20 00:30:56;;;;;;;20.77;3.60;;;6.10;99.90;;;;;;5081043;28;20068;-59
2021/12/20 00:33:22;;;;;;;18.00;3.15;;;6.10;99.90;;;;;;5081540;28;20044;-58
2021/12/20 00:35:49;;;;;;;22.13;3.58;;;6.10;99.90;;;;;;5080746;28;20040;-59
2021/12/20 00:40:59;;;;;;;20.52;2.85;;;6.30;99.90;;;;;;5080528;28;20486;-59
2021/12/20 00:43:26;;;;;;;22.35;3.28;;;6.20;99.90;;;;;;5079394;28;20040;-59
2021/12/20 00:45:52;;;;;;;17.67;3.15;;;6.30;99.90;;;;;;5079466;28;20516;-58
2021/12/20 00:48:17;;;;;;;15.02;3.10;;;6.30;99.90;;;;;;5080621;28;20119;-58
2021/12/20 00:50:44;;;;;;;15.20;2.35;;;6.30;99.90;;;;;;5086997;28;20087;-59
2021/12/20 00:53:12;;;;;;;13.45;2.40;;;6.30;99.90;;;;;;5100603;28;20043;-58
2021/12/20 00:55:38;;;;;;;15.25;3.45;;;6.30;99.90;;;;;;5084950;28;20067;-59
2021/12/20 00:58:05;;;;;;;19.30;2.63;;;6.30;99.90;;;;;;5079838;28;20068;-59
2021/12/20 01:00:37;;;;;;;17.10;2.97;;;6.40;99.90;;;;;;5080534;28;20052;-58
2021/12/20 01:03:05;;;;;;;21.23;3.55;;;6.40;99.90;;;;;;5080286;28;20056;-59
2021/12/20 01:05:31;;;;;;;15.88;2.97;;;6.40;99.90;;;;;;5080318;28;20052;-59
2021/12/20 01:08:00;;;;;;;14.77;2.78;;;6.40;99.90;;;;;;5080751;28;20496;-59
2021/12/20 01:10:29;;;;;;;13.73;2.80;;;6.40;99.90;;;;;;5078436;28;20440;-60
2021/12/20 01:12:55;;;;;;;15.00;2.38;;;6.40;99.90;;;;;;5080191;28;20215;-59
2021/12/20 01:15:25;;;;;;;13.07;2.53;;;6.50;99.90;;;;;;5061772;28;20036;-59
2021/12/20 01:17:52;;;;;;;14.43;2.38;;;6.50;99.90;;;;;;5080091;28;20053;-59
2021/12/20 01:20:18;;;;;;;12.18;2.20;;;6.50;99.90;;;;;;5078815;28;20522;-59
2021/12/20 01:22:47;;;;;;;10.60;2.08;;;6.50;99.90;;;;;;5079914;28;20067;-60
2021/12/20 01:25:14;;;;;;;12.57;2.95;;;6.50;99.90;;;;;;5062337;28;20072;-58
2021/12/20 01:27:40;;;;;;;13.20;2.10;;;6.50;99.90;;;;;;5077434;28;20104;-58
2021/12/20 01:30:07;;;;;;;9.60;1.80;;;6.50;99.90;;;;;;5079978;28;20053;-58
2021/12/20 01:32:33;;;;;;;16.48;2.10;;;6.50;99.90;;;;;;5079355;28;20043;-59
2021/12/20 01:34:59;;;;;;;20.08;2.97;;;6.50;99.90;;;;;;5079963;28;20056;-59
2021/12/20 01:37:25;;;;;;;10.93;2.33;;;6.50;99.90;;;;;;5079852;28;20049;-58
2021/12/20 01:39:52;;;;;;;17.25;2.40;;;6.40;99.90;;;;;;5079525;28;20055;-58
2021/12/20 01:42:20;;;;;;;12.13;1.95;;;6.40;99.90;;;;;;5080081;28;20037;-59
2021/12/20 01:44:49;;;;;;;12.10;1.88;;;6.50;99.90;;;;;;5077491;28;20045;-59
2021/12/20 01:47:15;;;;;;;12.25;2.00;;;6.40;99.90;;;;;;5078035;28;20101;-59
2021/12/20 01:49:54;;;;;;;13.90;1.85;;;6.30;99.90;;;;;;5078981;28;20107;-59
2021/12/20 01:52:23;;;;;;;15.98;2.42;;;6.30;99.90;;;;;;5078018;28;20044;-59
2021/12/20 01:54:51;;;;;;;12.68;2.55;;;6.30;99.90;;;;;;5079712;28;20052;-59
2021/12/20 01:57:17;;;;;;;15.82;2.38;;;6.30;99.90;;;;;;5078902;28;20048;-59
2021/12/20 01:59:43;;;;;;;13.55;2.38;;;6.20;99.90;;;;;;5077955;28;20108;-59
2021/12/20 02:02:09;;;;;;;12.35;2.40;;;6.30;99.90;;;;;;5078717;28;20045;-59
2021/12/20 02:04:45;;;;;;;14.05;2.72;;;6.30;99.90;;;;;;5078813;28;20581;-60
2021/12/20 02:07:30;;;;;;;12.55;2.13;;;6.30;99.90;;;;;;5078968;28;20477;-59
2021/12/20 02:09:56;;;;;;;11.98;2.33;;;6.30;99.90;;;;;;5079018;28;20049;-60
2021/12/20 02:12:22;;;;;;;15.25;2.67;;;6.30;99.90;;;;;;5079440;28;20052;-59
2021/12/20 02:14:48;;;;;;;14.55;2.92;;;6.30;99.90;;;;;;5077030;28;20136;-60
2021/12/20 02:17:14;;;;;;;7.95;1.85;;;6.20;99.90;;;;;;5079215;28;20050;-59
2021/12/20 02:19:40;;;;;;;14.15;2.40;;;6.30;99.90;;;;;;5060641;28;20567;-59
2021/12/20 02:22:06;;;;;;;12.02;2.20;;;6.30;99.90;;;;;;5077519;28;20075;-59
2021/12/20 02:24:32;;;;;;;13.35;2.58;;;6.20;99.90;;;;;;5079022;28;20056;-59
2021/12/20 02:26:58;;;;;;;19.90;2.20;;;6.20;99.90;;;;;;5078708;28;20041;-59
2021/12/20 02:29:40;;;;;;;15.75;2.35;;;6.10;99.90;;;;;;5079508;28;20599;-59
2021/12/20 02:37:35;;;;;;;13.30;2.13;;;6.20;99.90;;;;;;5078803;28;20055;-58
2021/12/20 02:40:01;;;;;;;15.25;2.28;;;6.20;99.90;;;;;;5078330;28;20606;-58
2021/12/20 02:42:33;;;;;;;15.85;3.47;;;6.10;99.90;;;;;;5078862;28;20056;-59
2021/12/20 02:45:20;;;;;;;17.95;2.30;;;6.10;99.90;;;;;;5077895;28;20127;-58
2021/12/20 02:47:47;;;;;;;14.82;2.63;;;6.10;99.90;;;;;;5078244;28;20060;-59
2021/12/20 02:50:14;;;;;;;14.82;2.22;;;6.00;99.90;;;;;;5080281;28;20084;-59
2021/12/20 02:52:41;;;;;;;12.88;2.15;;;5.90;99.90;;;;;;5098576;28;20036;-59
2021/12/20 02:55:08;;;;;;;13.15;2.38;;;6.00;99.90;;;;;;5086815;28;20049;-59
2021/12/20 02:57:36;;;;;;;15.15;3.20;;;5.90;99.90;;;;;;5077797;28;20044;-58
2021/12/20 03:00:08;;;;;;;14.52;3.55;;;5.90;99.90;;;;;;5060711;28;20052;-59
2021/12/20 03:02:34;;;;;;;15.30;2.28;;;5.80;99.90;;;;;;5077936;28;20075;-59
2021/12/20 03:05:00;;;;;;;10.88;2.08;;;5.70;99.90;;;;;;5076493;28;20056;-59
2021/12/20 03:07:27;;;;;;;14.57;2.67;;;5.60;99.90;;;;;;5078173;28;20052;-59
2021/12/20 03:10:00;;;;;;;12.93;2.83;;;5.60;99.90;;;;;;5076859;28;20041;-59
2021/12/20 03:12:29;;;;;;;9.68;2.05;;;5.60;99.90;;;;;;5077041;28;20049;-59
2021/12/20 03:15:01;;;;;;;21.10;2.38;;;5.50;99.90;;;;;;5077666;28;20087;-59
2021/12/20 03:17:28;;;;;;;13.48;2.45;;;5.50;99.90;;;;;;5078463;28;20052;-60
2021/12/20 03:19:54;;;;;;;9.82;1.98;;;5.40;99.90;;;;;;5077996;28;20090;-58
2021/12/20 03:22:19;;;;;;;16.45;2.70;;;5.40;99.90;;;;;;5078085;28;20037;-59
2021/12/20 03:24:45;;;;;;;12.68;2.17;;;5.40;99.90;;;;;;5078519;28;20067;-59
2021/12/20 03:27:11;;;;;;;14.18;2.60;;;5.30;99.90;;;;;;5077776;28;20076;-59
2021/12/20 03:29:36;;;;;;;14.27;2.28;;;5.30;99.90;;;;;;5078481;28;20045;-59
2021/12/20 03:32:03;;;;;;;16.20;3.83;;;5.30;99.90;;;;;;5076362;28;20045;-59
2021/12/20 03:34:28;;;;;;;11.48;2.08;;;5.30;99.90;;;;;;5078079;28;20044;-59
2021/12/20 03:36:54;;;;;;;12.85;2.25;;;5.30;99.90;;;;;;5077936;28;20110;-59
2021/12/20 03:39:20;;;;;;;13.40;1.95;;;5.30;99.90;;;;;;5078078;28;20054;-59
2021/12/20 03:41:46;;;;;;;11.88;1.90;;;5.20;99.90;;;;;;5078798;28;20101;-59
2021/12/20 03:44:12;;;;;;;13.30;1.80;;;5.20;99.90;;;;;;5078112;28;20095;-59
2021/12/20 03:46:38;;;;;;;10.52;2.20;;;5.20;99.90;;;;;;5079010;28;20044;-59
2021/12/20 03:49:05;;;;;;;15.60;2.10;;;5.20;99.90;;;;;;5043632;28;20087;-59
2021/12/20 03:51:31;;;;;;;13.93;2.17;;;5.20;99.90;;;;;;5096241;28;20091;-59
2021/12/20 03:53:57;;;;;;;14.93;1.98;;;5.20;99.90;;;;;;5099135;28;20044;-59
2021/12/20 03:56:23;;;;;;;11.63;1.92;;;5.30;99.90;;;;;;5082270;28;20043;-59
2021/12/20 03:58:48;;;;;;;13.32;2.10;;;5.30;99.90;;;;;;5082372;28;20051;-58
2021/12/20 04:01:15;;;;;;;11.45;2.28;;;5.30;99.90;;;;;;5080508;28;20048;-59
2021/12/20 04:03:42;;;;;;;13.32;2.03;;;5.30;99.90;;;;;;5082171;28;20052;-59
2021/12/20 04:06:10;;;;;;;11.77;2.47;;;5.40;99.90;;;;;;5081632;28;20608;-58
2021/12/20 04:08:36;;;;;;;9.35;1.77;;;5.40;99.90;;;;;;5082010;28;20044;-59
2021/12/20 04:11:03;;;;;;;13.27;2.90;;;5.30;99.90;;;;;;5079744;28;20064;-59
2021/12/20 04:13:29;;;;;;;11.80;1.67;;;5.30;99.90;;;;;;5080341;28;20045;-59
2021/12/20 04:15:55;;;;;;;8.85;1.65;;;5.20;99.90;;;;;;5081819;28;20037;-59
2021/12/20 04:18:25;;;;;;;10.95;1.70;;;5.20;99.90;;;;;;5081577;28;20836;-59
2021/12/20 04:20:51;;;;;;;11.75;2.00;;;5.20;99.90;;;;;;5081772;28;20125;-59
2021/12/20 04:23:17;;;;;;;9.45;1.85;;;5.20;99.90;;;;;;5081167;28;20059;-59
2021/12/20 04:25:43;;;;;;;7.85;1.35;;;5.20;99.90;;;;;;5081079;28;20036;-59
2021/12/20 04:28:09;;;;;;;11.57;2.00;;;5.20;99.90;;;;;;5080501;28;20040;-58
2021/12/20 04:30:35;;;;;;;14.20;2.45;;;5.10;99.90;;;;;;5080942;28;20071;-59
2021/12/20 04:33:01;;;;;;;14.75;2.40;;;5.20;99.90;;;;;;5081203;28;20041;-58
2021/12/20 04:35:27;;;;;;;11.77;2.15;;;5.20;99.90;;;;;;5079249;28;20044;-58
2021/12/20 04:37:53;;;;;;;12.93;3.15;;;5.30;99.90;;;;;;5081323;28;20048;-59
2021/12/20 04:40:21;;;;;;;9.45;2.17;;;5.30;99.90;;;;;;5080904;28;20047;-59
2021/12/20 04:42:53;;;;;;;16.13;2.05;;;5.30;99.90;;;;;;5081034;28;20414;-58
2021/12/20 04:45:19;;;;;;;14.05;1.92;;;5.30;99.90;;;;;;5080284;28;20045;-59
2021/12/20 04:47:45;;;;;;;10.70;1.65;;;5.30;99.90;;;;;;5079347;28;20048;-59
2021/12/20 04:50:12;;;;;;;13.30;2.15;;;5.30;99.90;;;;;;5083325;28;20041;-58
2021/12/20 04:52:38;;;;;;;11.02;1.52;;;5.30;99.90;;;;;;5100825;28;20075;-58
2021/12/20 04:55:08;;;;;;;13.68;2.65;;;5.30;99.90;;;;;;5087334;28;20472;-58
2021/12/20 04:57:34;;;;;;;12.80;2.08;;;5.30;99.90;;;;;;5080253;28;20049;-58
2021/12/20 05:00:00;;;;;;;8.25;1.70;;;5.40;99.90;;;;;;5080702;28;20086;-59
2021/12/20 05:02:26;;;;;;;10.55;2.05;;;5.30;99.90;;;;;;5078804;28;20056;-59
2021/12/20 05:04:52;;;;;;;12.30;2.08;;;5.30;99.90;;;;;;5079192;28;20121;-59
2021/12/20 05:07:18;;;;;;;10.90;1.83;;;5.30;99.90;;;;;;5080425;28;20045;-59
2021/12/20 05:09:44;;;;;;;15.82;3.38;;;5.30;99.90;;;;;;5080613;28;20125;-59
2021/12/20 05:12:11;;;;;;;15.77;2.55;;;5.20;99.90;;;;;;5080801;28;20086;-59
2021/12/20 05:14:40;;;;;;;9.05;1.80;;;5.20;99.90;;;;;;5078482;28;20053;-59
2021/12/20 05:17:06;;;;;;;13.65;2.97;;;5.20;99.90;;;;;;5080635;28;20048;-59
2021/12/20 05:19:32;;;;;;;12.50;2.05;;;5.20;99.90;;;;;;5078650;28;20044;-59
2021/12/20 05:21:58;;;;;;;9.70;2.10;;;5.20;99.90;;;;;;5078979;28;20047;-59
2021/12/20 05:24:24;;;;;;;12.15;1.80;;;5.10;99.90;;;;;;5080047;28;20044;-59
2021/12/20 05:26:50;;;;;;;11.57;2.90;;;5.00;99.90;;;;;;5080407;28;20059;-59
2021/12/20 05:29:15;;;;;;;13.73;1.80;;;5.10;99.90;;;;;;5079189;28;20509;-59
2021/12/20 05:31:42;;;;;;;8.52;1.98;;;5.00;99.90;;;;;;5079514;28;20047;-59
2021/12/20 05:34:07;;;;;;;13.55;2.00;;;4.90;99.90;;;;;;5080119;28;20094;-59
2021/12/20 05:36:33;;;;;;;10.48;2.10;;;4.80;99.90;;;;;;5077997;28;20131;-59
2021/12/20 05:38:59;;;;;;;12.38;2.47;;;4.80;99.90;;;;;;5079915;28;20048;-59
2021/12/20 05:41:25;;;;;;;10.48;2.53;;;4.70;99.90;;;;;;5079843;28;20049;-59
2021/12/20 05:43:51;;;;;;;11.50;1.95;;;4.70;99.90;;;;;;5078051;28;20105;-59
2021/12/20 05:46:17;;;;;;;8.55;1.65;;;4.60;99.90;;;;;;5079971;28;20066;-59
2021/12/20 05:48:43;;;;;;;14.30;2.22;;;4.50;99.90;;;;;;5079247;28;20104;-59
2021/12/20 05:51:09;;;;;;;13.68;2.42;;;4.50;99.90;;;;;;5090614;28;20048;-59
2021/12/20 05:53:35;;;;;;;9.52;2.58;;;4.40;99.90;;;;;;5099076;28;20105;-59
2021/12/20 05:56:00;;;;;;;12.55;2.08;;;4.40;99.90;;;;;;5079492;28;20036;-58
2021/12/20 05:58:26;;;;;;;10.65;2.13;;;4.30;99.90;;;;;;5079396;28;20044;-58
2021/12/20 06:00:55;;;;;;;12.45;1.85;;;4.30;99.90;;;;;;5079082;28;20041;-59
2021/12/20 06:03:20;;;;;;;11.23;2.03;;;4.30;99.90;;;;;;5079559;28;20510;-58
2021/12/20 06:05:46;;;;;;;12.70;1.90;;;4.10;99.90;;;;;;5077473;28;20158;-58
2021/12/20 06:08:12;;;;;;;12.02;1.85;;;4.20;99.90;;;;;;5077855;28;20032;-59
2021/12/20 06:10:39;;;;;;;12.15;1.67;;;4.10;99.90;;;;;;5078626;28;20073;-58
2021/12/20 06:13:06;;;;;;;8.52;1.55;;;4.10;99.90;;;;;;5078572;28;20096;-58
2021/12/20 06:15:32;;;;;;;10.23;2.10;;;3.90;99.90;;;;;;5078719;28;20448;-59
2021/12/20 06:17:59;;;;;;;14.65;1.90;;;3.90;99.90;;;;;;5082175;28;20825;-59
2021/12/20 06:20:26;;;;;;;10.88;1.90;;;3.90;99.90;;;;;;5098735;28;20036;-58
2021/12/20 06:22:52;;;;;;;9.75;2.42;;;3.80;99.90;;;;;;5098700;28;20395;-58
2021/12/20 06:25:20;;;;;;;12.13;2.00;;;3.70;99.90;;;;;;5099239;28;20404;-57
2021/12/20 06:27:49;;;;;;;12.77;2.03;;;3.70;99.90;;;;;;5098504;28;20082;-58
2021/12/20 06:30:15;;;;;;;10.80;2.45;;;3.80;99.90;;;;;;5099393;28;20047;-59
2021/12/20 06:32:42;;;;;;;17.00;2.53;;;3.70;99.90;;;;;;5099173;28;20036;-58
2021/12/20 06:35:10;;;;;;;11.52;2.42;;;3.70;99.90;;;;;;5099103;28;20395;-59
2021/12/20 06:37:36;;;;;;;15.45;2.00;;;3.70;99.90;;;;;;5099642;28;20048;-59
2021/12/20 06:40:04;;;;;;;13.95;2.45;;;3.60;99.90;;;;;;5098710;28;20032;-59
2021/12/20 06:42:30;;;;;;;11.60;1.92;;;3.70;99.90;;;;;;5097553;28;20051;-59
2021/12/20 06:44:55;;;;;;;13.80;2.40;;;3.60;99.90;;;;;;5097339;28;20075;-59
2021/12/20 06:47:22;;;;;;;16.05;2.00;;;3.60;99.90;;;;;;5097944;28;20044;-58
2021/12/20 06:49:48;;;;;;;11.48;2.85;;;3.60;99.90;;;;;;5097793;28;20039;-58
2021/12/20 06:52:14;;;;;;;13.73;2.22;;;3.50;99.90;;;;;;5078659;28;20047;-58
2021/12/20 06:54:40;;;;;;;14.65;2.70;;;3.50;99.90;;;;;;5079031;28;20036;-59
2021/12/20 06:57:06;;;;;;;11.77;2.35;;;3.50;99.90;;;;;;5060158;28;20056;-59
2021/12/20 06:59:32;;;;;;;13.23;2.15;;;3.40;99.90;;;;;;5077471;28;20048;-58
2021/12/20 07:02:00;;;;;;;14.88;2.30;;;3.30;99.90;;;;;;5078045;28;20044;-60
2021/12/20 07:04:26;;;;;;;10.93;2.22;;;3.40;99.90;;;;;;5077808;28;20066;-58
2021/12/20 07:06:53;;;;;;;10.13;2.45;;;3.30;99.90;;;;;;5078131;28;20044;-57
2021/12/20 07:09:19;;;;;;;14.50;2.33;;;3.30;99.90;;;;;;5077024;28;20047;-58
2021/12/20 07:11:45;;;;;;;11.30;2.10;;;3.30;99.90;;;;;;5078218;28;20044;-58
2021/12/20 07:14:11;;;;;;;13.70;2.28;;;3.20;99.90;;;;;;5076456;28;20051;-59
2021/12/20 07:16:40;;;;;;;16.15;2.50;;;3.20;99.90;;;;;;5078484;28;20045;-60
2021/12/20 07:19:06;;;;;;;9.93;2.28;;;3.20;99.90;;;;;;5076263;28;20516;-59
2021/12/20 07:21:32;;;;;;;17.83;2.78;;;3.20;99.90;;;;;;5076707;28;20055;-59
2021/12/20 07:23:57;;;;;;;13.77;2.80;;;3.20;99.90;;;;;;5076849;28;20053;-58
2021/12/20 07:26:23;;;;;;;12.90;2.78;;;3.10;99.90;;;;;;5077894;28;20060;-59
2021/12/20 07:28:49;;;;;;;19.67;3.28;;;3.20;99.90;;;;;;5076930;28;20048;-59
2021/12/20 07:31:15;;;;;;;13.00;2.40;;;3.10;99.90;;;;;;5076454;28;20668;-59
2021/12/20 07:33:42;;;;;;;13.27;2.40;;;3.10;99.90;;;;;;5078179;28;20056;-59
2021/12/20 07:36:08;;;;;;;18.05;4.35;;;3.10;99.90;;;;;;5076226;28;20056;-59
2021/12/20 07:38:34;;;;;;;18.02;6.65;;;3.10;99.90;;;;;;5078133;28;20064;-60
2021/12/20 07:41:01;;;;;;;25.02;8.32;;;3.10;99.90;;;;;;5077220;28;20082;-59
2021/12/20 07:43:27;;;;;;;31.30;7.90;;;3.10;99.90;;;;;;5077411;28;20734;-58
2021/12/20 07:45:53;;;;;;;13.68;4.07;;;3.10;99.90;;;;;;5077608;28;20078;-58
2021/12/20 07:48:20;;;;;;;10.73;3.50;;;3.10;99.90;;;;;;5077662;28;20049;-59
2021/12/20 07:50:47;;;;;;;20.48;4.35;;;3.10;99.90;;;;;;5084134;28;20131;-59
2021/12/20 07:53:13;;;;;;;14.45;3.75;;;3.20;99.90;;;;;;5097395;28;20482;-58
2021/12/20 07:55:39;;;;;;;19.45;3.38;;;3.20;99.90;;;;;;5078558;28;20068;-59
2021/12/20 07:58:06;;;;;;;15.27;3.20;;;3.20;99.90;;;;;;5077351;28;20369;-59
2021/12/20 08:00:32;;;;;;;16.10;3.75;;;3.20;99.90;;;;;;5077773;28;20044;-59
2021/12/20 08:02:58;;;;;;;12.50;3.97;;;3.20;99.90;;;;;;5076263;28;20390;-58
2021/12/20 08:05:25;;;;;;;13.50;2.95;;;3.20;99.90;;;;;;5076968;28;20055;-59
2021/12/20 08:07:51;;;;;;;12.88;4.13;;;3.10;99.90;;;;;;5077660;28;20135;-58
2021/12/20 08:10:19;;;;;;;11.18;3.25;;;3.10;99.90;;;;;;5058840;28;20118;-59
2021/12/20 08:12:45;;;;;;;13.75;3.85;;;3.10;99.90;;;;;;5075958;28;20041;-59
2021/12/20 08:15:12;;;;;;;19.30;3.60;;;3.00;99.90;;;;;;5077085;28;20044;-59
2021/12/20 08:17:38;;;;;;;13.85;4.32;;;3.00;99.90;;;;;;5077475;28;20040;-59
2021/12/20 08:20:06;;;;;;;16.00;3.40;;;3.00;99.90;;;;;;5076343;28;20049;-59
2021/12/20 08:22:32;;;;;;;13.10;4.10;;;3.00;99.90;;;;;;5077099;28;20052;-58
2021/12/20 08:24:57;;;;;;;16.02;3.63;;;3.00;99.90;;;;;;5076043;28;20048;-58
2021/12/20 08:27:24;;;;;;;14.18;3.42;;;3.00;99.90;;;;;;5076848;28;20055;-58
2021/12/20 08:29:49;;;;;;;11.10;3.55;;;3.00;99.90;;;;;;5059483;28;20037;-59
2021/12/20 08:32:15;;;;;;;12.18;3.47;;;3.00;99.90;;;;;;5076665;28;20044;-59
2021/12/20 08:34:41;;;;;;;21.77;3.67;;;3.10;99.90;;;;;;5075783;28;20049;-59
2021/12/20 08:37:07;;;;;;;9.20;2.63;;;3.10;99.90;;;;;;5079953;28;20048;-58
2021/12/20 08:39:34;;;;;;;13.68;2.97;;;3.10;99.90;;;;;;5079381;28;20083;-58
2021/12/20 08:42:02;;;;;;;13.07;3.78;;;3.10;99.90;;;;;;5079824;28;20129;-59
2021/12/20 08:44:35;;;;;;;14.00;3.42;;;3.10;99.90;;;;;;5079899;28;20082;-59
2021/12/20 08:47:02;;;;;;;11.85;2.72;;;3.20;99.90;;;;;;5079231;28;20044;-59
2021/12/20 08:49:28;;;;;;;15.45;2.80;;;3.20;99.90;;;;;;5079874;28;20805;-59
2021/12/20 08:51:55;;;;;;;9.98;3.05;;;3.20;99.90;;;;;;5097539;28;20066;-59
2021/12/20 08:54:29;;;;;;;17.83;3.45;;;3.30;99.90;;;;;;5096136;28;20424;-59
2021/12/20 08:56:56;;;;;;;15.40;4.20;;;3.30;99.90;;;;;;5080261;28;20075;-58
2021/12/20 08:59:22;;;;;;;12.88;3.45;;;3.30;99.90;;;;;;5079424;28;20033;-59
2021/12/20 09:01:48;;;;;;;14.82;3.28;;;3.40;99.90;;;;;;5079981;28;20555;-59
2021/12/20 09:04:15;;;;;;;14.80;3.47;;;3.40;99.90;;;;;;5079888;28;20052;-58
2021/12/20 09:06:42;;;;;;;23.73;4.43;;;3.50;99.90;;;;;;5079684;28;20056;-59
2021/12/20 09:09:11;;;;;;;16.67;3.53;;;3.50;99.90;;;;;;5080045;28;20040;-59
2021/12/20 09:11:37;;;;;;;13.50;3.85;;;3.40;99.90;;;;;;5080250;28;20096;-59
2021/12/20 09:14:03;;;;;;;20.98;5.55;;;3.50;99.90;;;;;;5079617;28;20123;-58
2021/12/20 09:16:30;;;;;;;19.98;3.97;;;3.90;99.90;;;;;;5080272;28;20048;-59
2021/12/20 09:18:58;;;;;;;14.73;4.38;;;3.50;99.90;;;;;;5079399;28;20044;-59
2021/12/20 09:21:24;;;;;;;17.50;5.18;;;3.50;99.90;;;;;;5079660;28;20040;-59
2021/12/20 09:23:50;;;;;;;20.25;4.38;;;3.60;99.90;;;;;;5078849;28;20064;-59
2021/12/20 09:26:17;;;;;;;15.40;4.45;;;3.70;99.90;;;;;;5079944;28;20053;-59
2021/12/20 09:28:43;;;;;;;14.73;4.05;;;3.60;99.90;;;;;;5079827;28;20079;-59
2021/12/20 09:31:09;;;;;;;15.52;4.25;;;3.70;99.90;;;;;;5079387;28;20036;-58
2021/12/20 09:33:35;;;;;;;16.85;4.90;;;3.80;99.90;;;;;;5079759;28;20109;-58
2021/12/20 09:36:02;;;;;;;12.90;4.50;;;3.80;99.90;;;;;;5078685;28;20709;-58
2021/12/20 09:38:31;;;;;;;15.93;4.53;;;3.90;99.90;;;;;;5082107;28;20066;-59
2021/12/20 09:43:35;;;;;;;20.50;4.50;;;3.90;99.90;;;;;;5090014;28;20098;-59
2021/12/20 09:46:01;;;;;;;14.73;3.85;;;4.00;99.90;;;;;;5092063;28;20044;-59
2021/12/20 09:48:27;;;;;;;20.00;4.60;;;4.10;99.90;;;;;;5098856;28;20078;-59
2021/12/20 09:50:53;;;;;;;15.18;5.10;;;4.10;99.90;;;;;;5086562;28;20048;-58
2021/12/20 09:53:18;;;;;;;18.60;4.03;;;4.20;99.90;;;;;;5080976;28;20041;-59
2021/12/20 09:55:49;;;;;;;23.80;5.47;;;4.20;99.90;;;;;;5083439;28;20075;-58
2021/12/20 09:58:15;;;;;;;21.65;5.35;;;4.30;99.90;;;;;;5085732;28;20062;-58
2021/12/20 10:00:42;;;;;;;23.83;5.18;;;4.40;99.90;;;;;;5086782;28;20325;-58
2021/12/20 10:03:08;;;;;;;18.42;4.28;;;4.40;99.90;;;;;;5083308;28;20053;-58
2021/12/20 10:05:35;;;;;;;30.50;6.60;;;4.50;99.90;;;;;;5078636;28;20067;-59
2021/12/20 10:08:12;;;;;;;20.73;4.85;;;4.50;99.90;;;;;;5086071;28;20516;-59
2021/12/20 10:10:45;;;;;;;22.45;5.13;;;4.60;99.90;;;;;;5088885;28;20051;-59
2021/12/20 10:13:29;;;;;;;;;;;4.60;99.90;;;;;;5086806;28;20048;-59
2021/12/20 10:15:59;;;;;;;23.20;5.63;;;4.70;99.90;;;;;;5087413;28;19959;-59
2021/12/20 10:18:26;;;;;;;22.65;5.18;;;4.70;99.90;;;;;;5085627;28;20119;-59
2021/12/20 10:20:56;;;;;;;24.52;4.95;;;4.70;99.90;;;;;;5090657;28;20404;-60
2021/12/20 10:23:23;;;;;;;29.73;6.20;;;4.80;99.90;;;;;;5088205;28;20067;-59
2021/12/20 10:26:00;;;;;;;26.98;4.95;;;4.90;99.90;;;;;;5090127;28;20051;-59
2021/12/20 10:28:33;;;;;;;25.33;4.47;;;4.90;99.90;;;;;;5099175;28;20079;-59
2021/12/20 10:31:06;;;;;;;24.60;5.18;;;4.90;99.90;;;;;;5097657;28;20067;-59
2021/12/20 10:33:32;;;;;;;22.13;5.00;;;5.00;99.90;;;;;;5099209;28;20048;-59
2021/12/20 10:36:10;;;;;;;24.15;5.20;;;5.00;99.90;;;;;;5098082;28;20044;-59
2021/12/20 10:38:43;;;;;;;27.00;5.55;;;5.00;99.90;;;;;;5099169;28;20091;-59
2021/12/20 10:41:15;;;;;;;;;;;5.10;99.90;;;;;;5099290;28;20446;-59
2021/12/20 10:43:51;;;;;;;30.00;5.00;;;5.10;99.90;;;;;;5096913;28;19931;-59
2021/12/20 10:46:21;;;;;;;23.08;5.95;;;5.20;99.90;;;;;;5099056;28;20048;-59
2021/12/20 10:48:50;;;;;;;26.83;5.80;;;5.20;99.90;;;;;;5098619;28;20047;-59
2021/12/20 10:51:44;;;;;;;24.10;5.50;;;5.20;99.90;;;;;;5085679;28;20083;-59
2021/12/20 10:54:15;;;;;;;27.48;5.13;;;5.30;99.90;;;;;;5076072;28;20052;-59
2021/12/20 10:56:56;;;;;;;23.90;4.38;;;5.30;99.90;;;;;;5078254;28;20458;-59
2021/12/20 10:59:24;;;;;;;20.80;4.60;;;5.40;99.90;;;;;;5076264;28;20057;-59
2021/12/20 11:04:45;;;;;;;24.25;5.43;;;5.40;99.90;;;;;;5078484;28;20052;-59
2021/12/20 11:09:55;;;;;;;22.83;4.78;;;5.50;99.90;;;;;;5076687;28;20071;-59
2021/12/20 11:12:30;;;;;;;26.42;4.47;;;5.60;99.90;;;;;;5078382;28;20100;-59
2021/12/20 11:15:00;;;;;;;21.67;4.00;;;5.60;99.90;;;;;;5077595;28;20052;-59
2021/12/20 11:17:28;;;;;;;32.25;5.55;;;5.70;99.90;;;;;;5078424;28;20107;-59
2021/12/20 11:19:56;;;;;;;25.70;4.43;;;5.70;99.90;;;;;;5078299;28;20044;-60
2021/12/20 11:22:24;;;;;;;19.35;4.13;;;5.80;99.90;;;;;;5076770;28;20040;-59
2021/12/20 11:25:03;;;;;;;25.52;4.72;;;5.80;99.90;;;;;;5078754;28;20052;-59
2021/12/20 11:27:36;;;;;;;17.60;4.95;;;5.90;99.90;;;;;;5077858;28;20044;-60
2021/12/20 11:30:17;;;;;;;22.40;4.30;;;5.90;99.90;;;;;;5078072;28;20550;-59
2021/12/20 11:32:44;;;;;;;23.00;3.65;;;5.90;99.90;;;;;;5077604;28;20044;-59
2021/12/20 11:35:11;;;;;;;18.77;3.63;;;6.00;99.90;;;;;;5078075;28;20464;-59
2021/12/20 11:37:37;;;;;;;23.98;4.38;;;6.00;99.90;;;;;;5078405;28;20508;-58
2021/12/20 11:40:07;;;;;;;26.55;4.53;;;6.10;99.90;;;;;;5077729;28;20058;-59
2021/12/20 11:42:33;;;;;;;22.35;4.25;;;6.10;99.90;;;;;;5078298;28;20044;-60
2021/12/20 11:45:03;;;;;;;25.00;4.97;;;6.10;99.90;;;;;;5077259;28;20098;-59
2021/12/20 11:48:05;;;;;;;27.13;4.05;;;6.10;99.90;;;;;;5076596;28;20182;-60
2021/12/20 11:50:34;;;;;;;24.17;4.90;;;6.20;99.90;;;;;;5082501;28;20047;-59
2021/12/20 11:53:09;;;;;;;18.08;3.63;;;6.20;99.90;;;;;;5097272;28;20062;-59
2021/12/20 11:55:36;;;;;;;18.13;3.80;;;6.20;99.90;;;;;;5082474;28;20044;-59
2021/12/20 11:58:14;;;;;;;24.05;4.68;;;6.40;99.90;;;;;;5077109;28;20052;-59
2021/12/20 12:00:46;;;;;;;15.68;4.10;;;6.30;99.90;;;;;;5076315;28;20079;-59
2021/12/20 12:03:15;;;;;;;;;;;6.30;99.90;;;;;;5078885;28;20044;-59
2021/12/20 12:05:49;;;;;;;15.88;3.60;;;6.20;99.90;;;;;;5077338;28;19924;-60
2021/12/20 12:08:27;;;;;;;20.20;4.78;;;6.20;99.90;;;;;;5077705;28;20456;-59
2021/12/20 12:11:00;;;;;;;21.20;3.72;;;6.20;99.90;;;;;;5077313;28;20053;-59
2021/12/20 12:13:28;;;;;;;14.57;3.58;;;6.20;99.90;;;;;;5081346;28;20138;-60
2021/12/20 12:16:16;;;;;;;18.70;3.72;;;6.20;99.90;;;;;;5063704;28;20527;-59
2021/12/20 12:18:44;;;;;;;20.42;3.67;;;6.20;99.90;;;;;;5079387;28;20078;-60
2021/12/20 12:21:32;;;;;;;17.08;3.58;;;6.20;99.90;;;;;;5062947;28;20514;-59
2021/12/20 12:23:59;;;;;;;20.20;3.63;;;6.20;99.90;;;;;;5080117;28;20048;-58
2021/12/20 12:26:41;;;;;;;19.58;4.18;;;6.20;99.90;;;;;;5079582;28;20484;-58
2021/12/20 12:29:15;;;;;;;19.15;3.45;;;6.20;99.90;;;;;;5079912;28;20067;-58
2021/12/20 12:32:00;;;;;;;20.08;3.47;;;6.30;99.90;;;;;;5079062;28;20063;-59
2021/12/20 12:34:47;;;;;;;18.20;3.65;;;6.30;99.90;;;;;;5080816;28;20044;-58
2021/12/20 12:37:23;;;;;;;16.40;4.35;;;6.30;99.90;;;;;;5080567;28;20059;-57
2021/12/20 12:39:49;;;;;;;13.35;3.03;;;6.30;99.90;;;;;;5080203;28;20045;-58
2021/12/20 12:42:15;;;;;;;19.60;4.55;;;6.30;99.90;;;;;;5080944;28;20108;-59
2021/12/20 12:44:50;;;;;;;15.48;3.92;;;6.30;99.90;;;;;;5080027;28;20076;-59
2021/12/20 12:47:35;;;;;;;17.48;3.60;;;6.30;99.90;;;;;;5080663;28;20087;-59
2021/12/20 12:50:02;;;;;;;21.08;4.68;;;6.30;99.90;;;;;;5082137;28;20097;-58
2021/12/20 12:52:36;;;;;;;18.55;3.63;;;6.30;99.90;;;;;;5100469;28;20051;-58
2021/12/20 12:55:06;;;;;;;18.90;4.18;;;6.30;99.90;;;;;;5089460;28;20079;-58
2021/12/20 12:57:35;;;;;;;18.80;3.60;;;6.30;99.90;;;;;;5079759;28;20048;-59
2021/12/20 13:00:08;;;;;;;21.02;4.18;;;6.40;99.90;;;;;;5080435;28;20072;-58
2021/12/20 13:02:40;;;;;;;19.35;5.32;;;6.30;99.90;;;;;;5062206;28;20036;-59
2021/12/20 13:05:14;;;;;;;13.40;4.22;;;6.30;99.90;;;;;;5085527;28;20507;-59
2021/12/20 13:07:49;;;;;;;18.38;3.60;;;6.30;99.90;;;;;;5086359;28;20049;-58
2021/12/20 13:10:30;;;;;;;19.25;4.38;;;6.30;99.90;;;;;;5088154;28;20097;-59